sensor_id;sensor_type;location;lat;lon;timestamp;P1;durP1;ratioP1;P2;durP2;ratioP2
3843;SDS011;1937;51.444;6.484;2023-05-10T00:01:49;42.23;;;14.37;;
3843;SDS011;1937;51.444;6.484;2023-05-10T00:04:16;43.10;;;14.50;;
3843;SDS011;1937;51.444;6.484;2023-05-10T00:06:42;42.70;;;14.93;;
3843;SDS011;1937;51.444;6.484;2023-05-10T00:09:09;37.70;;;12.93;;
3843;SDS011;1937;51.444;6.484;2023-05-10T00:11:35;39.27;;;12.97;;
3843;SDS011;1937;51.444;6.484;2023-05-10T00:14:02;44.00;;;14.03;;
3843;SDS011;1937;51.444;6.484;2023-05-10T00:16:30;41.47;;;13.00;;
3843;SDS011;1937;51.444;6.484;2023-05-10T00:18:57;39.10;;;13.20;;
3843;SDS011;1937;51.444;6.484;2023-05-10T00:21:23;44.53;;;14.00;;
3843;SDS011;1937;51.444;6.484;2023-05-10T00:23:50;40.93;;;14.10;;
3843;SDS011;1937;51.444;6.484;2023-05-10T00:26:16;41.83;;;14.07;;
3843;SDS011;1937;51.444;6.484;2023-05-10T00:28:43;43.20;;;13.93;;
3843;SDS011;1937;51.444;6.484;2023-05-10T00:31:09;41.83;;;14.87;;
3843;SDS011;1937;51.444;6.484;2023-05-10T00:33:37;39.47;;;13.30;;
3843;SDS011;1937;51.444;6.484;2023-05-10T00:36:04;43.70;;;14.17;;
3843;SDS011;1937;51.444;6.484;2023-05-10T00:38:33;40.77;;;13.00;;
3843;SDS011;1937;51.444;6.484;2023-05-10T00:40:59;39.97;;;12.70;;
3843;SDS011;1937;51.444;6.484;2023-05-10T00:43:26;42.37;;;14.00;;
3843;SDS011;1937;51.444;6.484;2023-05-10T00:45:53;39.13;;;12.73;;
3843;SDS011;1937;51.444;6.484;2023-05-10T00:48:20;44.33;;;13.23;;
3843;SDS011;1937;51.444;6.484;2023-05-10T00:50:49;43.20;;;15.17;;
3843;SDS011;1937;51.444;6.484;2023-05-10T00:53:15;39.17;;;13.63;;
3843;SDS011;1937;51.444;6.484;2023-05-10T00:55:42;42.10;;;13.10;;
3843;SDS011;1937;51.444;6.484;2023-05-10T00:58:09;43.63;;;14.47;;
3843;SDS011;1937;51.444;6.484;2023-05-10T01:00:36;45.27;;;15.83;;
3843;SDS011;1937;51.444;6.484;2023-05-10T01:03:04;46.57;;;15.50;;
3843;SDS011;1937;51.444;6.484;2023-05-10T01:05:30;41.57;;;13.87;;
3843;SDS011;1937;51.444;6.484;2023-05-10T01:07:58;44.97;;;16.10;;
3843;SDS011;1937;51.444;6.484;2023-05-10T01:14:14;41.73;;;14.97;;
3843;SDS011;1937;51.444;6.484;2023-05-10T01:16:42;41.90;;;14.10;;
3843;SDS011;1937;51.444;6.484;2023-05-10T01:19:12;38.43;;;13.20;;
3843;SDS011;1937;51.444;6.484;2023-05-10T01:21:48;39.07;;;14.20;;
3843;SDS011;1937;51.444;6.484;2023-05-10T01:24:26;38.10;;;12.40;;
3843;SDS011;1937;51.444;6.484;2023-05-10T01:27:25;36.33;;;12.97;;
3843;SDS011;1937;51.444;6.484;2023-05-10T01:30:20;40.83;;;15.10;;
3843;SDS011;1937;51.444;6.484;2023-05-10T01:33:02;40.80;;;12.50;;
3843;SDS011;1937;51.444;6.484;2023-05-10T01:35:37;37.17;;;11.93;;
3843;SDS011;1937;51.444;6.484;2023-05-10T01:38:10;41.90;;;14.90;;
3843;SDS011;1937;51.444;6.484;2023-05-10T01:40:42;41.33;;;14.43;;
3843;SDS011;1937;51.444;6.484;2023-05-10T01:43:21;37.37;;;12.30;;
3843;SDS011;1937;51.444;6.484;2023-05-10T01:45:56;38.73;;;12.50;;
3843;SDS011;1937;51.444;6.484;2023-05-10T01:48:35;42.93;;;15.37;;
3843;SDS011;1937;51.444;6.484;2023-05-10T01:51:04;42.40;;;13.37;;
3843;SDS011;1937;51.444;6.484;2023-05-10T01:53:32;38.10;;;12.70;;
3843;SDS011;1937;51.444;6.484;2023-05-10T01:56:03;52.20;;;15.77;;
3843;SDS011;1937;51.444;6.484;2023-05-10T01:58:31;39.07;;;12.37;;
3843;SDS011;1937;51.444;6.484;2023-05-10T02:01:01;41.90;;;13.60;;
3843;SDS011;1937;51.444;6.484;2023-05-10T02:03:30;34.43;;;11.63;;
3843;SDS011;1937;51.444;6.484;2023-05-10T02:05:59;34.00;;;12.80;;
3843;SDS011;1937;51.444;6.484;2023-05-10T02:08:27;39.77;;;13.33;;
3843;SDS011;1937;51.444;6.484;2023-05-10T02:10:55;42.43;;;13.60;;
3843;SDS011;1937;51.444;6.484;2023-05-10T02:13:23;36.47;;;12.03;;
3843;SDS011;1937;51.444;6.484;2023-05-10T02:15:51;38.90;;;13.70;;
3843;SDS011;1937;51.444;6.484;2023-05-10T02:18:20;42.77;;;12.37;;
3843;SDS011;1937;51.444;6.484;2023-05-10T02:20:49;34.40;;;11.60;;
3843;SDS011;1937;51.444;6.484;2023-05-10T02:23:20;37.13;;;11.07;;
3843;SDS011;1937;51.444;6.484;2023-05-10T02:25:48;37.23;;;11.73;;
3843;SDS011;1937;51.444;6.484;2023-05-10T02:28:15;35.30;;;11.43;;
3843;SDS011;1937;51.444;6.484;2023-05-10T02:30:43;36.00;;;10.90;;
3843;SDS011;1937;51.444;6.484;2023-05-10T02:33:10;36.90;;;11.47;;
3843;SDS011;1937;51.444;6.484;2023-05-10T02:35:37;35.57;;;11.33;;
3843;SDS011;1937;51.444;6.484;2023-05-10T02:38:04;34.30;;;10.80;;
3843;SDS011;1937;51.444;6.484;2023-05-10T02:40:35;31.97;;;10.50;;
3843;SDS011;1937;51.444;6.484;2023-05-10T02:43:03;35.57;;;11.47;;
3843;SDS011;1937;51.444;6.484;2023-05-10T02:45:32;36.07;;;12.53;;
3843;SDS011;1937;51.444;6.484;2023-05-10T02:48:01;33.47;;;10.67;;
3843;SDS011;1937;51.444;6.484;2023-05-10T02:50:28;34.37;;;10.73;;
3843;SDS011;1937;51.444;6.484;2023-05-10T02:53:00;34.13;;;11.00;;
3843;SDS011;1937;51.444;6.484;2023-05-10T02:55:31;45.87;;;11.77;;
3843;SDS011;1937;51.444;6.484;2023-05-10T02:58:02;32.53;;;10.03;;
3843;SDS011;1937;51.444;6.484;2023-05-10T03:00:29;33.37;;;9.97;;
3843;SDS011;1937;51.444;6.484;2023-05-10T03:02:56;29.73;;;9.33;;
3843;SDS011;1937;51.444;6.484;2023-05-10T03:05:23;35.83;;;10.63;;
3843;SDS011;1937;51.444;6.484;2023-05-10T03:07:50;34.43;;;11.27;;
3843;SDS011;1937;51.444;6.484;2023-05-10T03:10:18;36.30;;;12.30;;
3843;SDS011;1937;51.444;6.484;2023-05-10T03:12:48;37.87;;;13.00;;
3843;SDS011;1937;51.444;6.484;2023-05-10T03:15:28;38.40;;;10.97;;
3843;SDS011;1937;51.444;6.484;2023-05-10T03:18:01;43.57;;;13.97;;
3843;SDS011;1937;51.444;6.484;2023-05-10T03:20:34;41.60;;;12.60;;
3843;SDS011;1937;51.444;6.484;2023-05-10T03:23:03;41.17;;;13.67;;
3843;SDS011;1937;51.444;6.484;2023-05-10T03:25:33;44.10;;;15.60;;
3843;SDS011;1937;51.444;6.484;2023-05-10T03:28:01;44.40;;;14.40;;
3843;SDS011;1937;51.444;6.484;2023-05-10T03:30:31;47.13;;;16.37;;
3843;SDS011;1937;51.444;6.484;2023-05-10T03:33:03;41.73;;;12.70;;
3843;SDS011;1937;51.444;6.484;2023-05-10T03:35:30;47.30;;;15.47;;
3843;SDS011;1937;51.444;6.484;2023-05-10T03:37:57;41.77;;;15.13;;
3843;SDS011;1937;51.444;6.484;2023-05-10T03:40:23;46.57;;;14.57;;
3843;SDS011;1937;51.444;6.484;2023-05-10T03:42:51;44.90;;;14.87;;
3843;SDS011;1937;51.444;6.484;2023-05-10T03:45:17;48.80;;;15.07;;
3843;SDS011;1937;51.444;6.484;2023-05-10T03:47:45;46.83;;;15.87;;
3843;SDS011;1937;51.444;6.484;2023-05-10T03:50:11;47.70;;;15.30;;
3843;SDS011;1937;51.444;6.484;2023-05-10T03:52:38;59.63;;;17.50;;
3843;SDS011;1937;51.444;6.484;2023-05-10T03:55:05;50.50;;;15.40;;
3843;SDS011;1937;51.444;6.484;2023-05-10T03:57:32;49.60;;;17.07;;
3843;SDS011;1937;51.444;6.484;2023-05-10T03:59:59;57.90;;;19.03;;
3843;SDS011;1937;51.444;6.484;2023-05-10T04:02:26;51.83;;;18.30;;
3843;SDS011;1937;51.444;6.484;2023-05-10T04:04:53;51.33;;;19.13;;
3843;SDS011;1937;51.444;6.484;2023-05-10T04:07:20;59.60;;;19.47;;
3843;SDS011;1937;51.444;6.484;2023-05-10T04:09:47;59.53;;;20.63;;
3843;SDS011;1937;51.444;6.484;2023-05-10T04:12:13;59.53;;;18.80;;
3843;SDS011;1937;51.444;6.484;2023-05-10T04:14:40;63.67;;;20.10;;
3843;SDS011;1937;51.444;6.484;2023-05-10T04:17:06;55.60;;;21.40;;
3843;SDS011;1937;51.444;6.484;2023-05-10T04:19:33;55.67;;;19.20;;
3843;SDS011;1937;51.444;6.484;2023-05-10T04:22:01;57.53;;;19.53;;
3843;SDS011;1937;51.444;6.484;2023-05-10T04:24:28;63.50;;;21.60;;
3843;SDS011;1937;51.444;6.484;2023-05-10T04:26:54;57.67;;;21.47;;
3843;SDS011;1937;51.444;6.484;2023-05-10T04:29:21;59.80;;;22.87;;
3843;SDS011;1937;51.444;6.484;2023-05-10T04:31:48;76.50;;;22.87;;
3843;SDS011;1937;51.444;6.484;2023-05-10T04:34:15;71.53;;;23.30;;
3843;SDS011;1937;51.444;6.484;2023-05-10T04:36:42;60.23;;;22.77;;
3843;SDS011;1937;51.444;6.484;2023-05-10T04:39:10;61.77;;;21.80;;
3843;SDS011;1937;51.444;6.484;2023-05-10T04:41:37;59.17;;;20.70;;
3843;SDS011;1937;51.444;6.484;2023-05-10T04:44:04;63.43;;;20.77;;
3843;SDS011;1937;51.444;6.484;2023-05-10T04:46:31;56.90;;;20.37;;
3843;SDS011;1937;51.444;6.484;2023-05-10T04:48:57;63.27;;;21.10;;
3843;SDS011;1937;51.444;6.484;2023-05-10T04:51:24;64.17;;;21.47;;
3843;SDS011;1937;51.444;6.484;2023-05-10T04:53:51;62.57;;;20.97;;
3843;SDS011;1937;51.444;6.484;2023-05-10T04:56:18;62.77;;;21.50;;
3843;SDS011;1937;51.444;6.484;2023-05-10T04:58:47;64.07;;;23.60;;
3843;SDS011;1937;51.444;6.484;2023-05-10T05:01:14;65.50;;;22.60;;
3843;SDS011;1937;51.444;6.484;2023-05-10T05:03:41;56.97;;;20.23;;
3843;SDS011;1937;51.444;6.484;2023-05-10T05:06:07;69.07;;;23.47;;
3843;SDS011;1937;51.444;6.484;2023-05-10T05:08:34;62.00;;;22.50;;
3843;SDS011;1937;51.444;6.484;2023-05-10T05:11:01;71.00;;;23.53;;
3843;SDS011;1937;51.444;6.484;2023-05-10T05:13:28;62.00;;;24.10;;
3843;SDS011;1937;51.444;6.484;2023-05-10T05:15:55;74.17;;;24.17;;
3843;SDS011;1937;51.444;6.484;2023-05-10T05:18:22;65.07;;;23.00;;
3843;SDS011;1937;51.444;6.484;2023-05-10T05:20:48;59.97;;;21.47;;
3843;SDS011;1937;51.444;6.484;2023-05-10T05:23:15;75.47;;;24.77;;
3843;SDS011;1937;51.444;6.484;2023-05-10T05:25:42;75.23;;;25.10;;
3843;SDS011;1937;51.444;6.484;2023-05-10T05:28:08;72.53;;;23.00;;
3843;SDS011;1937;51.444;6.484;2023-05-10T05:30:36;70.57;;;23.33;;
3843;SDS011;1937;51.444;6.484;2023-05-10T05:33:03;76.17;;;27.70;;
3843;SDS011;1937;51.444;6.484;2023-05-10T05:35:29;72.20;;;24.50;;
3843;SDS011;1937;51.444;6.484;2023-05-10T05:37:56;68.63;;;24.17;;
3843;SDS011;1937;51.444;6.484;2023-05-10T05:40:22;71.37;;;24.50;;
3843;SDS011;1937;51.444;6.484;2023-05-10T05:42:49;77.23;;;26.47;;
3843;SDS011;1937;51.444;6.484;2023-05-10T05:45:16;70.40;;;25.00;;
3843;SDS011;1937;51.444;6.484;2023-05-10T05:47:44;76.77;;;26.70;;
3843;SDS011;1937;51.444;6.484;2023-05-10T05:50:10;70.13;;;22.03;;
3843;SDS011;1937;51.444;6.484;2023-05-10T05:52:37;65.67;;;23.37;;
3843;SDS011;1937;51.444;6.484;2023-05-10T05:55:04;74.93;;;24.53;;
3843;SDS011;1937;51.444;6.484;2023-05-10T05:57:31;81.80;;;28.23;;
3843;SDS011;1937;51.444;6.484;2023-05-10T05:59:57;77.97;;;26.00;;
3843;SDS011;1937;51.444;6.484;2023-05-10T06:02:24;79.03;;;25.67;;
3843;SDS011;1937;51.444;6.484;2023-05-10T06:04:52;80.20;;;26.90;;
3843;SDS011;1937;51.444;6.484;2023-05-10T06:07:19;72.70;;;24.70;;
3843;SDS011;1937;51.444;6.484;2023-05-10T06:09:45;74.67;;;25.30;;
3843;SDS011;1937;51.444;6.484;2023-05-10T06:12:12;77.70;;;26.23;;
3843;SDS011;1937;51.444;6.484;2023-05-10T06:14:38;91.43;;;26.10;;
3843;SDS011;1937;51.444;6.484;2023-05-10T06:17:05;82.77;;;26.90;;
3843;SDS011;1937;51.444;6.484;2023-05-10T06:19:31;82.43;;;27.63;;
3843;SDS011;1937;51.444;6.484;2023-05-10T06:21:59;78.10;;;25.13;;
3843;SDS011;1937;51.444;6.484;2023-05-10T06:24:26;64.97;;;22.00;;
3843;SDS011;1937;51.444;6.484;2023-05-10T06:26:53;79.43;;;26.93;;
3843;SDS011;1937;51.444;6.484;2023-05-10T06:29:20;75.77;;;25.13;;
3843;SDS011;1937;51.444;6.484;2023-05-10T06:31:46;85.77;;;26.13;;
3843;SDS011;1937;51.444;6.484;2023-05-10T06:34:13;77.20;;;27.23;;
3843;SDS011;1937;51.444;6.484;2023-05-10T06:36:39;82.07;;;27.00;;
3843;SDS011;1937;51.444;6.484;2023-05-10T06:39:07;90.43;;;29.47;;
3843;SDS011;1937;51.444;6.484;2023-05-10T06:41:34;79.70;;;26.90;;
3843;SDS011;1937;51.444;6.484;2023-05-10T06:44:01;78.80;;;24.20;;
3843;SDS011;1937;51.444;6.484;2023-05-10T06:46:28;80.70;;;25.70;;
3843;SDS011;1937;51.444;6.484;2023-05-10T06:48:55;77.53;;;27.77;;
3843;SDS011;1937;51.444;6.484;2023-05-10T06:51:22;76.40;;;25.30;;
3843;SDS011;1937;51.444;6.484;2023-05-10T06:53:48;89.33;;;29.80;;
3843;SDS011;1937;51.444;6.484;2023-05-10T06:56:16;81.20;;;26.30;;
3843;SDS011;1937;51.444;6.484;2023-05-10T06:58:43;89.23;;;26.00;;
3843;SDS011;1937;51.444;6.484;2023-05-10T07:01:10;91.77;;;27.03;;
3843;SDS011;1937;51.444;6.484;2023-05-10T07:03:37;86.73;;;26.43;;
3843;SDS011;1937;51.444;6.484;2023-05-10T07:06:04;86.30;;;26.73;;
3843;SDS011;1937;51.444;6.484;2023-05-10T07:08:32;87.80;;;29.47;;
3843;SDS011;1937;51.444;6.484;2023-05-10T07:10:59;88.47;;;30.20;;
3843;SDS011;1937;51.444;6.484;2023-05-10T07:13:28;92.63;;;27.10;;
3843;SDS011;1937;51.444;6.484;2023-05-10T07:15:54;92.73;;;29.47;;
3843;SDS011;1937;51.444;6.484;2023-05-10T07:18:21;94.67;;;29.27;;
3843;SDS011;1937;51.444;6.484;2023-05-10T07:20:47;87.60;;;29.00;;
3843;SDS011;1937;51.444;6.484;2023-05-10T07:23:14;91.13;;;28.17;;
3843;SDS011;1937;51.444;6.484;2023-05-10T07:25:40;83.17;;;26.50;;
3843;SDS011;1937;51.444;6.484;2023-05-10T07:28:07;83.50;;;29.10;;
3843;SDS011;1937;51.444;6.484;2023-05-10T07:30:35;100.67;;;27.67;;
3843;SDS011;1937;51.444;6.484;2023-05-10T07:33:01;89.47;;;25.50;;
3843;SDS011;1937;51.444;6.484;2023-05-10T07:35:28;88.73;;;25.17;;
3843;SDS011;1937;51.444;6.484;2023-05-10T07:37:54;80.30;;;25.10;;
3843;SDS011;1937;51.444;6.484;2023-05-10T07:40:21;71.67;;;25.97;;
3843;SDS011;1937;51.444;6.484;2023-05-10T07:42:48;68.67;;;22.70;;
3843;SDS011;1937;51.444;6.484;2023-05-10T07:45:14;83.03;;;25.27;;
3843;SDS011;1937;51.444;6.484;2023-05-10T07:47:42;72.80;;;26.40;;
3843;SDS011;1937;51.444;6.484;2023-05-10T07:50:09;74.93;;;25.83;;
3843;SDS011;1937;51.444;6.484;2023-05-10T07:52:36;90.67;;;24.07;;
3843;SDS011;1937;51.444;6.484;2023-05-10T07:55:02;79.53;;;27.67;;
3843;SDS011;1937;51.444;6.484;2023-05-10T07:57:30;71.97;;;24.97;;
3843;SDS011;1937;51.444;6.484;2023-05-10T07:59:57;80.83;;;25.27;;
3843;SDS011;1937;51.444;6.484;2023-05-10T08:02:23;74.83;;;25.30;;
3843;SDS011;1937;51.444;6.484;2023-05-10T08:04:51;77.03;;;23.33;;
3843;SDS011;1937;51.444;6.484;2023-05-10T08:07:18;68.17;;;23.10;;
3843;SDS011;1937;51.444;6.484;2023-05-10T08:09:44;72.53;;;23.30;;
3843;SDS011;1937;51.444;6.484;2023-05-10T08:12:11;72.47;;;22.37;;
3843;SDS011;1937;51.444;6.484;2023-05-10T08:14:37;71.73;;;23.10;;
3843;SDS011;1937;51.444;6.484;2023-05-10T08:17:04;66.20;;;22.50;;
3843;SDS011;1937;51.444;6.484;2023-05-10T08:19:31;76.30;;;25.47;;
3843;SDS011;1937;51.444;6.484;2023-05-10T08:21:58;68.27;;;22.50;;
3843;SDS011;1937;51.444;6.484;2023-05-10T08:24:25;70.57;;;21.73;;
3843;SDS011;1937;51.444;6.484;2023-05-10T08:26:51;71.23;;;22.63;;
3843;SDS011;1937;51.444;6.484;2023-05-10T08:29:18;75.90;;;21.63;;
3843;SDS011;1937;51.444;6.484;2023-05-10T08:31:45;74.70;;;21.23;;
3843;SDS011;1937;51.444;6.484;2023-05-10T08:34:11;65.00;;;20.10;;
3843;SDS011;1937;51.444;6.484;2023-05-10T08:36:38;75.93;;;23.00;;
3843;SDS011;1937;51.444;6.484;2023-05-10T08:39:06;72.23;;;23.47;;
3843;SDS011;1937;51.444;6.484;2023-05-10T08:41:33;76.20;;;24.00;;
3843;SDS011;1937;51.444;6.484;2023-05-10T08:44:02;71.70;;;21.00;;
3843;SDS011;1937;51.444;6.484;2023-05-10T08:46:30;66.43;;;18.17;;
3843;SDS011;1937;51.444;6.484;2023-05-10T08:48:59;69.80;;;20.50;;
3843;SDS011;1937;51.444;6.484;2023-05-10T08:51:31;68.20;;;21.27;;
3843;SDS011;1937;51.444;6.484;2023-05-10T08:54:02;79.00;;;21.20;;
3843;SDS011;1937;51.444;6.484;2023-05-10T08:56:31;81.27;;;19.60;;
3843;SDS011;1937;51.444;6.484;2023-05-10T08:58:58;78.40;;;18.40;;
3843;SDS011;1937;51.444;6.484;2023-05-10T09:01:25;72.10;;;17.60;;
3843;SDS011;1937;51.444;6.484;2023-05-10T09:03:53;77.10;;;20.10;;
3843;SDS011;1937;51.444;6.484;2023-05-10T09:06:20;76.13;;;22.00;;
3843;SDS011;1937;51.444;6.484;2023-05-10T09:08:47;75.33;;;20.40;;
3843;SDS011;1937;51.444;6.484;2023-05-10T09:11:14;78.13;;;19.93;;
3843;SDS011;1937;51.444;6.484;2023-05-10T09:13:42;73.90;;;18.47;;
3843;SDS011;1937;51.444;6.484;2023-05-10T09:16:09;73.97;;;20.53;;
3843;SDS011;1937;51.444;6.484;2023-05-10T09:18:36;72.33;;;20.90;;
3843;SDS011;1937;51.444;6.484;2023-05-10T09:21:02;72.60;;;21.30;;
3843;SDS011;1937;51.444;6.484;2023-05-10T09:23:29;69.87;;;20.30;;
3843;SDS011;1937;51.444;6.484;2023-05-10T09:26:03;67.60;;;19.50;;
3843;SDS011;1937;51.444;6.484;2023-05-10T09:28:31;65.50;;;21.20;;
3843;SDS011;1937;51.444;6.484;2023-05-10T09:30:59;67.97;;;18.30;;
3843;SDS011;1937;51.444;6.484;2023-05-10T09:33:26;67.07;;;19.60;;
3843;SDS011;1937;51.444;6.484;2023-05-10T09:35:52;71.60;;;19.40;;
3843;SDS011;1937;51.444;6.484;2023-05-10T09:38:19;60.03;;;18.30;;
3843;SDS011;1937;51.444;6.484;2023-05-10T09:40:50;70.40;;;19.63;;
3843;SDS011;1937;51.444;6.484;2023-05-10T09:43:19;63.70;;;18.17;;
3843;SDS011;1937;51.444;6.484;2023-05-10T09:45:47;62.70;;;19.97;;
3843;SDS011;1937;51.444;6.484;2023-05-10T09:48:16;62.43;;;19.97;;
3843;SDS011;1937;51.444;6.484;2023-05-10T09:50:42;72.40;;;19.63;;
3843;SDS011;1937;51.444;6.484;2023-05-10T09:53:09;65.97;;;19.73;;
3843;SDS011;1937;51.444;6.484;2023-05-10T09:55:41;70.53;;;21.63;;
3843;SDS011;1937;51.444;6.484;2023-05-10T09:58:09;69.67;;;20.57;;
3843;SDS011;1937;51.444;6.484;2023-05-10T10:00:37;74.67;;;22.67;;
3843;SDS011;1937;51.444;6.484;2023-05-10T10:03:05;74.13;;;21.10;;
3843;SDS011;1937;51.444;6.484;2023-05-10T10:05:34;71.17;;;21.10;;
3843;SDS011;1937;51.444;6.484;2023-05-10T10:08:02;74.93;;;21.07;;
3843;SDS011;1937;51.444;6.484;2023-05-10T10:10:30;74.47;;;21.73;;
3843;SDS011;1937;51.444;6.484;2023-05-10T10:12:59;76.53;;;21.70;;
3843;SDS011;1937;51.444;6.484;2023-05-10T10:15:26;69.63;;;19.17;;
3843;SDS011;1937;51.444;6.484;2023-05-10T10:17:52;76.00;;;19.80;;
3843;SDS011;1937;51.444;6.484;2023-05-10T10:20:21;71.10;;;21.63;;
3843;SDS011;1937;51.444;6.484;2023-05-10T10:22:50;69.87;;;18.60;;
3843;SDS011;1937;51.444;6.484;2023-05-10T10:25:17;76.40;;;19.10;;
3843;SDS011;1937;51.444;6.484;2023-05-10T10:27:48;75.40;;;18.87;;
3843;SDS011;1937;51.444;6.484;2023-05-10T10:30:25;68.43;;;17.10;;
3843;SDS011;1937;51.444;6.484;2023-05-10T10:33:01;73.13;;;16.13;;
3843;SDS011;1937;51.444;6.484;2023-05-10T10:35:39;69.07;;;16.30;;
3843;SDS011;1937;51.444;6.484;2023-05-10T10:38:08;65.50;;;16.60;;
3843;SDS011;1937;51.444;6.484;2023-05-10T10:40:35;68.77;;;18.40;;
3843;SDS011;1937;51.444;6.484;2023-05-10T10:43:21;67.10;;;17.57;;
3843;SDS011;1937;51.444;6.484;2023-05-10T10:48:38;69.30;;;18.00;;
3843;SDS011;1937;51.444;6.484;2023-05-10T10:51:05;72.80;;;17.73;;
3843;SDS011;1937;51.444;6.484;2023-05-10T10:53:33;65.00;;;14.87;;
3843;SDS011;1937;51.444;6.484;2023-05-10T10:56:06;63.60;;;15.80;;
3843;SDS011;1937;51.444;6.484;2023-05-10T10:58:34;63.20;;;15.80;;
3843;SDS011;1937;51.444;6.484;2023-05-10T11:01:11;66.10;;;15.00;;
3843;SDS011;1937;51.444;6.484;2023-05-10T11:03:39;60.03;;;14.87;;
3843;SDS011;1937;51.444;6.484;2023-05-10T11:06:06;61.50;;;13.30;;
3843;SDS011;1937;51.444;6.484;2023-05-10T11:08:41;59.13;;;13.00;;
3843;SDS011;1937;51.444;6.484;2023-05-10T11:11:09;60.40;;;13.00;;
3843;SDS011;1937;51.444;6.484;2023-05-10T11:13:41;58.53;;;12.37;;
3843;SDS011;1937;51.444;6.484;2023-05-10T11:16:12;55.80;;;12.30;;
3843;SDS011;1937;51.444;6.484;2023-05-10T11:18:41;57.87;;;13.07;;
3843;SDS011;1937;51.444;6.484;2023-05-10T11:21:18;57.90;;;11.83;;
3843;SDS011;1937;51.444;6.484;2023-05-10T11:23:50;58.70;;;12.57;;
3843;SDS011;1937;51.444;6.484;2023-05-10T11:26:21;59.03;;;13.23;;
3843;SDS011;1937;51.444;6.484;2023-05-10T11:28:50;56.50;;;11.73;;
3843;SDS011;1937;51.444;6.484;2023-05-10T11:31:18;55.73;;;12.00;;
3843;SDS011;1937;51.444;6.484;2023-05-10T11:33:46;53.63;;;10.73;;
3843;SDS011;1937;51.444;6.484;2023-05-10T11:36:14;61.63;;;11.93;;
3843;SDS011;1937;51.444;6.484;2023-05-10T11:38:42;62.03;;;11.30;;
3843;SDS011;1937;51.444;6.484;2023-05-10T11:41:10;62.67;;;12.23;;
3843;SDS011;1937;51.444;6.484;2023-05-10T11:43:38;60.20;;;13.27;;
3843;SDS011;1937;51.444;6.484;2023-05-10T11:46:05;54.67;;;11.50;;
3843;SDS011;1937;51.444;6.484;2023-05-10T11:48:32;61.63;;;11.87;;
3843;SDS011;1937;51.444;6.484;2023-05-10T11:51:00;55.10;;;10.63;;
3843;SDS011;1937;51.444;6.484;2023-05-10T11:53:27;56.67;;;12.20;;
3843;SDS011;1937;51.444;6.484;2023-05-10T11:55:53;55.17;;;12.50;;
3843;SDS011;1937;51.444;6.484;2023-05-10T11:58:21;58.77;;;13.27;;
3843;SDS011;1937;51.444;6.484;2023-05-10T12:00:49;60.83;;;15.23;;
3843;SDS011;1937;51.444;6.484;2023-05-10T12:03:16;56.50;;;14.37;;
3843;SDS011;1937;51.444;6.484;2023-05-10T12:05:43;55.07;;;14.10;;
3843;SDS011;1937;51.444;6.484;2023-05-10T12:08:13;55.33;;;14.07;;
3843;SDS011;1937;51.444;6.484;2023-05-10T12:10:40;52.60;;;13.87;;
3843;SDS011;1937;51.444;6.484;2023-05-10T12:13:10;54.30;;;15.00;;
3843;SDS011;1937;51.444;6.484;2023-05-10T12:15:40;52.43;;;14.87;;
3843;SDS011;1937;51.444;6.484;2023-05-10T12:18:07;53.57;;;16.97;;
3843;SDS011;1937;51.444;6.484;2023-05-10T12:20:35;54.97;;;17.33;;
3843;SDS011;1937;51.444;6.484;2023-05-10T12:23:02;48.43;;;16.67;;
3843;SDS011;1937;51.444;6.484;2023-05-10T12:25:31;47.13;;;15.97;;
3843;SDS011;1937;51.444;6.484;2023-05-10T12:27:59;47.73;;;17.13;;
3843;SDS011;1937;51.444;6.484;2023-05-10T12:30:29;50.97;;;16.80;;
3843;SDS011;1937;51.444;6.484;2023-05-10T12:33:00;43.73;;;15.50;;
3843;SDS011;1937;51.444;6.484;2023-05-10T12:35:29;46.43;;;16.63;;
3843;SDS011;1937;51.444;6.484;2023-05-10T12:37:56;42.70;;;16.13;;
3843;SDS011;1937;51.444;6.484;2023-05-10T12:40:23;41.93;;;15.50;;
3843;SDS011;1937;51.444;6.484;2023-05-10T12:42:50;41.00;;;15.33;;
3843;SDS011;1937;51.444;6.484;2023-05-10T12:45:17;44.10;;;15.97;;
3843;SDS011;1937;51.444;6.484;2023-05-10T12:47:44;39.13;;;13.73;;
3843;SDS011;1937;51.444;6.484;2023-05-10T12:50:12;39.10;;;15.23;;
3843;SDS011;1937;51.444;6.484;2023-05-10T12:52:39;40.83;;;14.53;;
3843;SDS011;1937;51.444;6.484;2023-05-10T12:55:05;40.27;;;13.10;;
3843;SDS011;1937;51.444;6.484;2023-05-10T12:57:32;42.50;;;15.10;;
3843;SDS011;1937;51.444;6.484;2023-05-10T12:59:59;44.03;;;15.00;;
3843;SDS011;1937;51.444;6.484;2023-05-10T13:02:25;42.27;;;14.87;;
3843;SDS011;1937;51.444;6.484;2023-05-10T13:04:52;43.10;;;14.00;;
3843;SDS011;1937;51.444;6.484;2023-05-10T13:07:20;38.57;;;13.80;;
3843;SDS011;1937;51.444;6.484;2023-05-10T13:09:46;37.63;;;14.00;;
3843;SDS011;1937;51.444;6.484;2023-05-10T13:12:13;36.00;;;12.90;;
3843;SDS011;1937;51.444;6.484;2023-05-10T13:14:39;38.83;;;12.83;;
3843;SDS011;1937;51.444;6.484;2023-05-10T13:17:06;36.10;;;11.80;;
3843;SDS011;1937;51.444;6.484;2023-05-10T13:19:33;37.47;;;12.93;;
3843;SDS011;1937;51.444;6.484;2023-05-10T13:22:00;34.90;;;13.50;;
3843;SDS011;1937;51.444;6.484;2023-05-10T13:24:28;38.10;;;13.47;;
3843;SDS011;1937;51.444;6.484;2023-05-10T13:26:55;37.30;;;13.13;;
3843;SDS011;1937;51.444;6.484;2023-05-10T13:29:21;36.33;;;12.93;;
3843;SDS011;1937;51.444;6.484;2023-05-10T13:31:48;37.70;;;12.77;;
3843;SDS011;1937;51.444;6.484;2023-05-10T13:34:14;35.80;;;12.07;;
3843;SDS011;1937;51.444;6.484;2023-05-10T13:36:41;36.90;;;14.07;;
3843;SDS011;1937;51.444;6.484;2023-05-10T13:39:08;34.97;;;13.00;;
3843;SDS011;1937;51.444;6.484;2023-05-10T13:41:35;41.30;;;13.60;;
3843;SDS011;1937;51.444;6.484;2023-05-10T13:44:03;41.07;;;12.90;;
3843;SDS011;1937;51.444;6.484;2023-05-10T13:46:29;47.30;;;15.00;;
3843;SDS011;1937;51.444;6.484;2023-05-10T13:48:56;45.70;;;16.50;;
3843;SDS011;1937;51.444;6.484;2023-05-10T13:51:22;42.60;;;15.73;;
3843;SDS011;1937;51.444;6.484;2023-05-10T13:53:49;39.13;;;14.70;;
3843;SDS011;1937;51.444;6.484;2023-05-10T13:56:16;37.17;;;13.73;;
3843;SDS011;1937;51.444;6.484;2023-05-10T13:58:44;35.70;;;14.13;;
3843;SDS011;1937;51.444;6.484;2023-05-10T14:01:10;34.30;;;12.90;;
3843;SDS011;1937;51.444;6.484;2023-05-10T14:03:37;38.43;;;14.60;;
3843;SDS011;1937;51.444;6.484;2023-05-10T14:06:04;34.63;;;14.93;;
3843;SDS011;1937;51.444;6.484;2023-05-10T14:08:32;33.90;;;14.33;;
3843;SDS011;1937;51.444;6.484;2023-05-10T14:11:00;30.17;;;12.20;;
3843;SDS011;1937;51.444;6.484;2023-05-10T14:13:27;35.13;;;14.20;;
3843;SDS011;1937;51.444;6.484;2023-05-10T14:15:55;32.57;;;12.90;;
3843;SDS011;1937;51.444;6.484;2023-05-10T14:18:21;34.27;;;13.97;;
3843;SDS011;1937;51.444;6.484;2023-05-10T14:20:48;34.20;;;13.00;;
3843;SDS011;1937;51.444;6.484;2023-05-10T14:23:15;32.00;;;12.97;;
3843;SDS011;1937;51.444;6.484;2023-05-10T14:25:41;34.17;;;14.10;;
3843;SDS011;1937;51.444;6.484;2023-05-10T14:28:08;35.37;;;12.97;;
3843;SDS011;1937;51.444;6.484;2023-05-10T14:30:35;33.60;;;13.50;;
3843;SDS011;1937;51.444;6.484;2023-05-10T14:33:03;22.80;;;8.27;;
3843;SDS011;1937;51.444;6.484;2023-05-10T14:35:30;19.03;;;4.80;;
3843;SDS011;1937;51.444;6.484;2023-05-10T14:37:57;19.13;;;6.90;;
3843;SDS011;1937;51.444;6.484;2023-05-10T14:40:23;17.30;;;4.70;;
3843;SDS011;1937;51.444;6.484;2023-05-10T14:42:51;17.63;;;4.13;;
3843;SDS011;1937;51.444;6.484;2023-05-10T14:45:18;18.07;;;4.13;;
3843;SDS011;1937;51.444;6.484;2023-05-10T14:47:44;21.73;;;5.73;;
3843;SDS011;1937;51.444;6.484;2023-05-10T14:50:12;22.83;;;5.90;;
3843;SDS011;1937;51.444;6.484;2023-05-10T14:52:39;30.33;;;8.90;;
3843;SDS011;1937;51.444;6.484;2023-05-10T14:55:06;26.97;;;7.17;;
3843;SDS011;1937;51.444;6.484;2023-05-10T14:57:33;27.73;;;8.37;;
3843;SDS011;1937;51.444;6.484;2023-05-10T15:00:00;29.67;;;8.50;;